createdAt,value
2022-08-04T00:01:36.892Z,75.65
2022-08-04T00:04:31.414Z,75.80
2022-08-04T00:07:19.200Z,75.83
2022-08-04T00:10:27.967Z,75.89
2022-08-04T00:13:17.007Z,75.87
2022-08-04T00:15:46.203Z,76.08
2022-08-04T00:18:17.406Z,76.04
2022-08-04T00:20:46.552Z,76.16
2022-08-04T00:23:15.412Z,76.09
2022-08-04T00:25:44.848Z,76.17
2022-08-04T00:28:13.166Z,76.23
2022-08-04T00:30:43.030Z,76.21
2022-08-04T00:33:11.801Z,76.23
2022-08-04T00:35:40.600Z,76.31
2022-08-04T00:38:11.233Z,76.42
2022-08-04T00:40:44.826Z,76.60
2022-08-04T00:43:31.886Z,76.73
2022-08-04T00:46:16.685Z,76.82
2022-08-04T00:49:07.424Z,76.87
2022-08-04T00:51:41.721Z,77.21
2022-08-04T00:54:30.519Z,77.24
2022-08-04T00:57:33.556Z,77.34
2022-08-04T01:00:13.166Z,77.40
2022-08-04T01:02:56.286Z,77.50
2022-08-04T01:06:26.260Z,77.34
2022-08-04T01:09:09.106Z,77.41
2022-08-04T01:11:57.266Z,77.39
2022-08-04T01:14:44.742Z,77.45
2022-08-04T01:17:18.580Z,77.46
2022-08-04T01:20:08.478Z,77.76
2022-08-04T01:23:14.716Z,78.07
2022-08-04T01:25:51.240Z,78.05
2022-08-04T01:28:44.160Z,78.04
2022-08-04T01:31:35.217Z,78.04
2022-08-04T01:34:23.845Z,78.03
2022-08-04T01:37:11.205Z,77.99
2022-08-04T01:39:52.175Z,77.92
2022-08-04T01:43:00.013Z,77.84
2022-08-04T01:45:29.966Z,77.79
2022-08-04T01:47:58.231Z,77.71
2022-08-04T01:50:29.183Z,77.74
2022-08-04T01:52:57.453Z,77.73
2022-08-04T01:55:52.072Z,77.81
2022-08-04T01:58:19.606Z,77.97
2022-08-04T02:00:58.759Z,78.03
2022-08-04T02:04:20.113Z,78.13
2022-08-04T02:06:26.686Z,78.19
2022-08-04T02:09:06.325Z,78.28
2022-08-04T02:11:34.227Z,78.13
2022-08-04T02:14:45.693Z,77.91
2022-08-04T02:17:28.789Z,78.02
2022-08-04T02:20:12.650Z,78.06
2022-08-04T02:22:53.539Z,77.94
2022-08-04T02:25:29.890Z,77.93
2022-08-04T02:28:26.566Z,77.96
2022-08-04T02:31:08.801Z,77.99
2022-08-04T02:33:44.546Z,78.19
2022-08-04T02:36:26.631Z,78.29
2022-08-04T02:39:03.123Z,78.32
2022-08-04T02:41:32.666Z,78.44
2022-08-04T02:44:04.291Z,78.56
2022-08-04T02:46:34.805Z,78.58
2022-08-04T02:49:11.159Z,78.71
2022-08-04T02:51:45.249Z,78.76
2022-08-04T02:54:28.279Z,78.73
2022-08-04T02:57:04.597Z,78.77
2022-08-04T03:00:10.242Z,78.74
2022-08-04T03:03:03.567Z,78.73
2022-08-04T03:05:54.150Z,78.66
2022-08-04T03:08:52.706Z,78.64
2022-08-04T03:11:39.441Z,78.71
2022-08-04T03:14:40.409Z,78.60
2022-08-04T03:17:52.572Z,78.52
2022-08-04T03:20:45.669Z,78.38
2022-08-04T03:23:33.697Z,78.28
2022-08-04T03:26:40.692Z,78.20
2022-08-04T03:29:45.997Z,78.10
2022-08-04T03:32:19.736Z,77.96
2022-08-04T03:35:25.016Z,78.03
2022-08-04T03:38:28.195Z,78.06
2022-08-04T03:41:55.300Z,77.99
2022-08-04T03:44:40.921Z,77.79
2022-08-04T03:47:26.221Z,77.57
2022-08-04T03:50:31.636Z,77.49
2022-08-04T03:53:18.467Z,77.41
2022-08-04T03:55:48.986Z,77.39
2022-08-04T03:58:46.907Z,77.28
2022-08-04T04:02:02.094Z,77.32
2022-08-04T04:04:50.050Z,77.37
2022-08-04T04:07:35.836Z,77.21
2022-08-04T04:10:26.891Z,76.99
2022-08-04T04:12:57.166Z,76.81
2022-08-04T04:16:02.620Z,76.60
2022-08-04T04:19:07.685Z,76.51
2022-08-04T04:21:41.798Z,75.93
2022-08-04T04:24:43.675Z,75.67
2022-08-04T04:27:39.652Z,75.50
2022-08-04T04:30:11.620Z,74.77
2022-08-04T04:33:20.386Z,74.34
2022-08-04T04:36:19.617Z,74.26
2022-08-04T04:39:21.744Z,73.91
2022-08-04T04:42:26.442Z,73.23
2022-08-04T04:45:30.208Z,72.74
2022-08-04T04:48:11.073Z,72.54
2022-08-04T04:50:53.595Z,72.60
2022-08-04T04:53:47.584Z,71.88
2022-08-04T04:56:41.511Z,71.39
2022-08-04T04:59:33.199Z,71.15
2022-08-04T05:02:19.499Z,71.20
2022-08-04T05:05:29.725Z,71.03
2022-08-04T05:08:44.989Z,71.12
2022-08-04T05:11:11.659Z,70.81
2022-08-04T05:14:37.804Z,71.07
2022-08-04T05:16:40.744Z,70.77
2022-08-04T05:19:26.263Z,70.72
2022-08-04T05:22:14.246Z,70.50
2022-08-04T05:24:46.477Z,70.55
2022-08-04T05:27:28.792Z,70.42
2022-08-04T05:30:03.416Z,69.77
2022-08-04T05:32:42.420Z,69.81
2022-08-04T05:35:15.726Z,69.05
2022-08-04T05:38:08.378Z,68.87
2022-08-04T05:40:40.139Z,68.27
2022-08-04T05:43:09.825Z,67.52
2022-08-04T05:45:39.313Z,67.04
2022-08-04T05:48:10.215Z,65.76
2022-08-04T05:50:39.120Z,63.90
2022-08-04T05:53:10.582Z,62.13
2022-08-04T05:55:48.821Z,60.88
2022-08-04T05:58:31.855Z,60.27
2022-08-04T06:01:01.359Z,58.15
2022-08-04T06:03:32.154Z,57.15
2022-08-04T06:06:01.093Z,55.03
2022-08-04T06:08:30.548Z,53.84
2022-08-04T06:11:03.981Z,54.17
2022-08-04T06:13:47.643Z,53.76
2022-08-04T06:16:30.057Z,53.23
2022-08-04T06:20:03.562Z,53.22
2022-08-04T06:22:02.778Z,52.82
2022-08-04T06:24:36.276Z,52.60
2022-08-04T06:27:06.514Z,52.60
2022-08-04T06:29:38.785Z,52.17
2022-08-04T06:32:26.932Z,51.61
2022-08-04T06:35:06.736Z,50.47
2022-08-04T06:37:43.619Z,49.44
2022-08-04T06:40:30.759Z,50.20
2022-08-04T06:43:03.917Z,49.17
2022-08-04T06:45:40.218Z,48.80
2022-08-04T06:48:09.382Z,48.99
2022-08-04T06:51:24.435Z,48.99
2022-08-04T06:53:27.410Z,48.94
2022-08-04T06:55:58.222Z,46.74
2022-08-04T06:58:31.743Z,45.64
2022-08-04T07:01:02.364Z,44.10
2022-08-04T07:03:32.513Z,44.85
2022-08-04T07:06:06.051Z,44.63
2022-08-04T07:08:37.018Z,45.31
2022-08-04T07:11:05.981Z,45.30
2022-08-04T07:13:34.821Z,44.61
2022-08-04T07:16:03.575Z,44.83
2022-08-04T07:18:32.490Z,45.71
2022-08-04T07:21:04.142Z,45.42
2022-08-04T07:23:32.549Z,44.91
2022-08-04T07:26:12.030Z,44.40
2022-08-04T07:28:41.759Z,45.38
2022-08-04T07:31:32.029Z,44.53
2022-08-04T07:34:16.512Z,44.16
2022-08-04T07:36:53.104Z,43.79
2022-08-04T07:39:28.336Z,42.80
2022-08-04T07:42:01.552Z,44.10
2022-08-04T07:44:32.884Z,43.20
2022-08-04T07:47:02.912Z,43.28
2022-08-04T07:49:55.491Z,43.38
2022-08-04T07:52:21.035Z,43.75
2022-08-04T07:54:52.627Z,44.52
2022-08-04T07:57:40.131Z,45.44
2022-08-04T08:00:15.022Z,45.25
2022-08-04T08:02:45.861Z,44.79
2022-08-04T08:05:17.152Z,45.47
2022-08-04T08:07:50.719Z,45.56
2022-08-04T08:10:24.482Z,44.16
2022-08-04T08:12:53.823Z,42.78
2022-08-04T08:15:22.826Z,41.56
2022-08-04T08:17:58.227Z,41.06
2022-08-04T08:20:32.588Z,39.74
2022-08-04T08:23:02.439Z,38.82
2022-08-04T08:25:32.809Z,39.54
2022-08-04T08:28:03.944Z,39.27
2022-08-04T08:30:33.646Z,38.40
2022-08-04T08:33:08.169Z,38.60
2022-08-04T08:36:03.900Z,38.55
2022-08-04T08:38:34.837Z,37.79
2022-08-04T08:41:40.565Z,38.30
2022-08-04T08:44:37.560Z,38.68
2022-08-04T08:48:06.006Z,38.91
2022-08-04T08:50:55.616Z,38.57
2022-08-04T08:53:57.699Z,38.77
2022-08-04T08:56:34.920Z,37.24
2022-08-04T08:59:22.766Z,36.43
2022-08-04T09:01:53.814Z,36.05
2022-08-04T09:04:35.700Z,36.11
2022-08-04T09:07:28.560Z,35.66
2022-08-04T09:10:25.335Z,35.90
2022-08-04T09:12:59.780Z,36.04
2022-08-04T09:15:42.066Z,36.06
2022-08-04T09:18:19.363Z,34.71
2022-08-04T09:20:56.786Z,34.57
2022-08-04T09:24:36.469Z,34.56
2022-08-04T09:27:16.061Z,33.43
2022-08-04T09:29:53.740Z,33.45
2022-08-04T09:32:33.259Z,32.75
2022-08-04T09:35:15.601Z,32.15
2022-08-04T09:38:12.161Z,32.73
2022-08-04T09:41:26.877Z,33.83
2022-08-04T09:44:50.265Z,33.76
2022-08-04T09:47:39.385Z,33.44
2022-08-04T09:50:34.155Z,33.48
2022-08-04T09:53:27.424Z,33.12
2022-08-04T09:56:10.060Z,34.13
2022-08-04T09:59:12.298Z,34.75
2022-08-04T10:01:42.708Z,34.75
2022-08-04T10:04:20.123Z,34.47
2022-08-04T10:07:01.026Z,32.53
2022-08-04T10:09:43.821Z,32.34
2022-08-04T10:12:24.069Z,31.19
2022-08-04T10:15:12.082Z,31.26
2022-08-04T10:17:55.196Z,31.14
2022-08-04T10:20:53.065Z,31.46
2022-08-04T10:23:26.775Z,31.56
2022-08-04T10:26:13.019Z,31.48
2022-08-04T10:28:55.659Z,32.36
2022-08-04T10:31:29.666Z,33.30
2022-08-04T10:34:11.981Z,34.49
2022-08-04T10:37:20.614Z,33.97
2022-08-04T10:40:13.072Z,33.73
2022-08-04T10:42:54.158Z,33.00
2022-08-04T10:45:29.475Z,33.14
2022-08-04T10:48:14.482Z,31.24
2022-08-04T10:50:55.402Z,30.54
2022-08-04T10:53:37.824Z,30.32
2022-08-04T10:56:30.516Z,30.97
2022-08-04T10:59:04.769Z,31.31
2022-08-04T11:01:50.573Z,31.52
2022-08-04T11:04:46.998Z,32.48
2022-08-04T11:07:17.740Z,32.25
2022-08-04T11:09:46.932Z,30.91
2022-08-04T11:12:21.492Z,29.46
2022-08-04T11:15:05.327Z,29.07
2022-08-04T11:17:38.747Z,29.50
2022-08-04T11:20:36.975Z,28.63
2022-08-04T11:23:14.281Z,28.86
2022-08-04T11:26:03.766Z,29.17
2022-08-04T11:29:04.063Z,29.06
2022-08-04T11:31:36.838Z,28.51
2022-08-04T11:34:18.321Z,27.57
2022-08-04T11:36:52.126Z,27.06
2022-08-04T11:39:38.577Z,26.79
2022-08-04T11:42:21.096Z,25.09
2022-08-04T11:45:07.201Z,25.75
2022-08-04T11:47:40.508Z,26.81
2022-08-04T11:50:11.719Z,26.88
2022-08-04T11:52:43.523Z,27.17
2022-08-04T11:55:16.799Z,28.31
2022-08-04T11:57:45.282Z,27.17
2022-08-04T12:00:23.011Z,27.11
2022-08-04T12:03:04.767Z,25.68
2022-08-04T12:05:37.939Z,25.26
2022-08-04T12:08:52.044Z,23.78
2022-08-04T12:11:57.940Z,23.52
2022-08-04T12:14:41.556Z,24.60
2022-08-04T12:17:13.566Z,26.99
2022-08-04T12:20:03.813Z,27.73
2022-08-04T12:22:41.816Z,27.07
2022-08-04T12:25:16.702Z,25.12
2022-08-04T12:27:59.886Z,25.24
2022-08-04T12:31:01.475Z,25.01
2022-08-04T12:33:41.254Z,23.59
2022-08-04T12:36:45.732Z,23.51
2022-08-04T12:39:20.855Z,22.90
2022-08-04T12:41:55.725Z,23.77
2022-08-04T12:44:37.877Z,23.54
2022-08-04T12:47:26.806Z,21.53
2022-08-04T12:50:07.270Z,20.54
2022-08-04T12:53:03.517Z,21.60
2022-08-04T12:55:35.637Z,20.57
2022-08-04T12:58:13.576Z,21.39
2022-08-04T13:00:51.487Z,21.99
2022-08-04T13:03:24.035Z,22.40
2022-08-04T13:05:55.739Z,22.47
2022-08-04T13:08:36.384Z,22.94
2022-08-04T13:11:05.501Z,22.71
2022-08-04T13:13:37.166Z,23.07
2022-08-04T13:16:13.095Z,22.28
2022-08-04T13:18:51.215Z,22.54
2022-08-04T13:21:23.109Z,23.59
2022-08-04T13:24:22.861Z,24.11
2022-08-04T13:27:09.550Z,23.49
2022-08-04T13:29:57.818Z,23.18
2022-08-04T13:32:30.630Z,23.96
2022-08-04T13:35:02.217Z,23.54
2022-08-04T13:37:37.417Z,23.27
2022-08-04T13:40:09.933Z,23.84
2022-08-04T13:42:40.630Z,23.50
2022-08-04T13:45:10.163Z,23.35
2022-08-04T13:47:40.474Z,23.20
2022-08-04T13:50:27.440Z,23.24
2022-08-04T13:53:01.469Z,21.81
2022-08-04T13:55:33.566Z,22.35
2022-08-04T13:58:05.415Z,22.34
2022-08-04T14:00:52.104Z,22.67
2022-08-04T14:03:53.818Z,22.42
2022-08-04T14:06:27.172Z,21.40
2022-08-04T14:09:10.385Z,21.79
2022-08-04T14:12:07.552Z,21.96
2022-08-04T14:14:47.587Z,22.27
2022-08-04T14:17:30.499Z,22.00
2022-08-04T14:20:04.789Z,22.25
2022-08-04T14:22:35.615Z,22.04
2022-08-04T14:25:04.726Z,21.19
2022-08-04T14:27:43.626Z,21.98
2022-08-04T14:30:31.778Z,22.24
2022-08-04T14:34:01.794Z,21.79
2022-08-04T14:36:03.839Z,22.51
2022-08-04T14:38:54.689Z,22.59
2022-08-04T14:41:30.281Z,22.11
2022-08-04T14:44:02.352Z,22.25
2022-08-04T14:46:36.652Z,22.18
2022-08-04T14:49:10.447Z,21.17
2022-08-04T14:51:43.708Z,20.87
2022-08-04T14:54:18.351Z,21.53
2022-08-04T14:57:04.891Z,21.18
2022-08-04T14:59:59.488Z,21.57
2022-08-04T15:02:32.813Z,22.24
2022-08-04T15:06:02.266Z,21.89
2022-08-04T15:07:52.767Z,22.39
2022-08-04T15:10:21.635Z,21.88
2022-08-04T15:12:49.950Z,21.60
2022-08-04T15:15:36.051Z,20.93
2022-08-04T15:18:11.481Z,20.86
2022-08-04T15:20:42.864Z,20.55
2022-08-04T15:23:11.142Z,19.65
2022-08-04T15:25:48.372Z,19.20
2022-08-04T15:28:20.463Z,18.44
2022-08-04T15:30:54.355Z,18.71
2022-08-04T15:33:28.973Z,18.41
2022-08-04T15:36:37.306Z,17.68
2022-08-04T15:39:27.309Z,17.85
2022-08-04T15:42:21.651Z,18.42
2022-08-04T15:45:12.623Z,18.72
2022-08-04T15:47:41.408Z,19.31
2022-08-04T15:50:28.489Z,19.04
2022-08-04T15:53:00.924Z,19.00
2022-08-04T15:55:39.911Z,18.09
2022-08-04T15:58:09.874Z,18.34
2022-08-04T16:00:49.938Z,19.28
2022-08-04T16:03:54.263Z,19.33
2022-08-04T16:06:41.703Z,18.45
2022-08-04T16:09:23.714Z,18.95
2022-08-04T16:11:52.688Z,19.93
2022-08-04T16:14:33.970Z,21.31
2022-08-04T16:17:20.049Z,23.50
2022-08-04T16:20:04.479Z,25.36
2022-08-04T16:22:36.091Z,26.44
2022-08-04T16:25:24.691Z,26.96
2022-08-04T16:27:53.058Z,27.76
2022-08-04T16:30:21.198Z,28.50
2022-08-04T16:32:49.455Z,29.38
2022-08-04T16:35:27.287Z,29.65
2022-08-04T16:38:13.444Z,30.12
2022-08-04T16:40:46.057Z,30.21
2022-08-04T16:43:19.420Z,30.79
2022-08-04T16:45:49.096Z,30.98
2022-08-04T16:48:29.109Z,31.08
2022-08-04T16:51:05.314Z,31.48
2022-08-04T16:54:03.104Z,31.75
2022-08-04T16:56:35.638Z,32.27
2022-08-04T16:59:09.950Z,32.76
2022-08-04T17:01:49.875Z,32.99
2022-08-04T17:04:18.555Z,33.50
2022-08-04T17:06:46.996Z,33.67
2022-08-04T17:09:19.756Z,34.15
2022-08-04T17:11:48.595Z,34.46
2022-08-04T17:14:23.024Z,34.40
2022-08-04T17:16:52.461Z,34.23
2022-08-04T17:19:26.042Z,34.46
2022-08-04T17:22:05.973Z,34.81
2022-08-04T17:24:37.121Z,35.66
2022-08-04T17:28:09.511Z,35.52
2022-08-04T17:29:55.569Z,35.87
2022-08-04T17:32:24.432Z,36.53
2022-08-04T17:35:01.579Z,36.95
2022-08-04T17:37:39.867Z,36.87
2022-08-04T17:40:18.303Z,37.07
2022-08-04T17:44:04.526Z,37.58
2022-08-04T17:46:14.523Z,38.48
2022-08-04T17:48:43.031Z,38.77
2022-08-04T17:51:21.819Z,39.48
2022-08-04T17:54:11.837Z,41.00
2022-08-04T17:59:52.886Z,43.50
2022-08-04T18:02:33.373Z,44.02
2022-08-04T18:05:07.411Z,44.37
2022-08-04T18:10:51.868Z,45.24
2022-08-04T18:13:23.753Z,46.38
2022-08-04T18:16:03.056Z,46.47
2022-08-04T18:18:31.840Z,46.35
2022-08-04T18:21:03.496Z,46.85
2022-08-04T18:23:33.518Z,47.22
2022-08-04T18:26:03.749Z,47.47
2022-08-04T18:28:33.471Z,48.30
2022-08-04T18:31:05.065Z,48.85
2022-08-04T18:33:40.366Z,49.43
2022-08-04T18:36:34.877Z,49.58
2022-08-04T18:39:13.082Z,49.30
2022-08-04T18:42:00.941Z,50.18
2022-08-04T18:44:32.657Z,50.11
2022-08-04T18:47:29.975Z,50.22
2022-08-04T18:50:59.221Z,50.72
2022-08-04T18:52:53.006Z,51.19
2022-08-04T18:58:11.821Z,51.67
2022-08-04T19:00:45.872Z,51.84
2022-08-04T19:03:16.316Z,51.96
2022-08-04T19:05:51.637Z,52.18
2022-08-04T19:11:37.082Z,51.24
2022-08-04T19:13:58.199Z,51.27
2022-08-04T19:16:28.717Z,51.84
2022-08-04T19:18:58.755Z,52.21
2022-08-04T19:21:58.727Z,52.88
2022-08-04T19:24:28.469Z,52.81
2022-08-04T19:26:59.178Z,53.17
2022-08-04T19:29:37.600Z,52.92
2022-08-04T19:32:15.212Z,53.10
2022-08-04T19:34:47.469Z,53.35
2022-08-04T19:37:58.031Z,54.06
2022-08-04T19:40:09.523Z,54.44
2022-08-04T19:42:40.363Z,54.81
2022-08-04T19:45:15.364Z,55.25
2022-08-04T19:48:15.848Z,55.21
2022-08-04T19:50:34.826Z,55.27
2022-08-04T19:53:04.246Z,55.36
2022-08-04T19:55:49.424Z,54.70
2022-08-04T19:58:21.581Z,54.46
2022-08-04T20:00:55.532Z,55.35
2022-08-04T20:04:09.174Z,55.62
2022-08-04T20:06:15.365Z,55.74
2022-08-04T20:08:48.573Z,55.96
2022-08-04T20:11:18.450Z,55.79
2022-08-04T20:13:54.663Z,55.52
2022-08-04T20:16:29.526Z,55.99
2022-08-04T20:19:03.646Z,55.84
2022-08-04T20:21:53.543Z,55.84
2022-08-04T20:24:38.875Z,55.53
2022-08-04T20:27:15.368Z,55.46
2022-08-04T20:29:49.437Z,55.25
2022-08-04T20:32:22.096Z,55.37
2022-08-04T20:34:52.731Z,55.66
2022-08-04T20:37:25.261Z,56.46
2022-08-04T20:39:58.873Z,56.26
2022-08-04T20:42:33.708Z,56.55
2022-08-04T20:45:02.646Z,57.04
2022-08-04T20:47:35.518Z,57.49
2022-08-04T20:50:08.969Z,57.86
2022-08-04T20:52:56.459Z,58.62
2022-08-04T20:55:29.649Z,59.46
2022-08-04T20:58:02.958Z,59.84
2022-08-04T21:00:32.376Z,60.09
2022-08-04T21:03:00.795Z,60.84
2022-08-04T21:05:29.257Z,61.07
2022-08-04T21:07:59.732Z,61.19
2022-08-04T21:10:28.117Z,61.58
2022-08-04T21:12:56.326Z,62.39
2022-08-04T21:15:26.463Z,62.72
2022-08-04T21:18:14.626Z,63.02
2022-08-04T21:20:48.332Z,62.87
2022-08-04T21:23:16.688Z,62.82
2022-08-04T21:25:51.080Z,62.90
2022-08-04T21:28:20.276Z,63.47
2022-08-04T21:30:53.182Z,63.30
2022-08-04T21:33:36.097Z,63.67
2022-08-04T21:36:13.837Z,64.30
2022-08-04T21:38:51.266Z,65.13
2022-08-04T21:44:10.056Z,65.82
2022-08-04T21:46:44.363Z,65.98
2022-08-04T21:49:12.911Z,66.05
2022-08-04T21:51:58.347Z,66.04
2022-08-04T21:54:29.036Z,66.34
2022-08-04T21:56:57.279Z,66.56
2022-08-04T21:59:30.541Z,66.89
2022-08-04T22:02:01.576Z,67.11
2022-08-04T22:04:31.028Z,67.49
2022-08-04T22:07:03.105Z,67.83
2022-08-04T22:09:38.795Z,68.04
2022-08-04T22:12:12.520Z,68.26
2022-08-04T22:14:40.917Z,68.58
2022-08-04T22:17:13.455Z,68.70
2022-08-04T22:19:55.398Z,68.89
2022-08-04T22:22:29.644Z,69.11
2022-08-04T22:25:06.265Z,69.36
2022-08-04T22:28:02.649Z,69.54
2022-08-04T22:30:37.725Z,69.44
2022-08-04T22:33:08.916Z,69.78
2022-08-04T22:35:44.320Z,70.09
2022-08-04T22:38:20.838Z,70.38
2022-08-04T22:41:03.899Z,70.41
2022-08-04T22:43:34.658Z,70.27
2022-08-04T22:46:08.855Z,70.37
2022-08-04T22:48:43.525Z,70.51
2022-08-04T22:51:13.259Z,70.76
2022-08-04T22:53:48.730Z,70.93
2022-08-04T22:56:37.394Z,70.93
2022-08-04T22:59:11.400Z,70.93
2022-08-04T23:01:59.060Z,71.27
2022-08-04T23:04:32.683Z,71.34
2022-08-04T23:07:09.218Z,71.38
2022-08-04T23:09:50.333Z,71.53
2022-08-04T23:12:26.549Z,71.57
2022-08-04T23:14:57.540Z,71.49
2022-08-04T23:17:28.523Z,71.57
2022-08-04T23:19:59.573Z,71.63
2022-08-04T23:22:36.993Z,71.79
2022-08-04T23:25:16.561Z,72.00
2022-08-04T23:27:50.980Z,72.43
2022-08-04T23:30:24.767Z,72.68
2022-08-04T23:32:59.046Z,72.71
2022-08-04T23:35:27.576Z,72.91
2022-08-04T23:37:57.308Z,72.91
2022-08-04T23:40:34.269Z,73.05
2022-08-04T23:43:13.471Z,73.55
2022-08-04T23:46:04.255Z,74.06
2022-08-04T23:48:38.840Z,74.21
2022-08-04T23:51:14.468Z,74.27
2022-08-04T23:54:02.281Z,74.51
2022-08-04T23:56:35.874Z,74.44
2022-08-04T23:59:06.326Z,74.53
